Time;durP1;ratioP1;P1;durP2;ratioP2;P2;SDS_P1;SDS_P2;PMS_P1;PMS_P2;Temp;Humidity;BMP_temperature;BMP_pressure;BME280_temperature;BME280_humidity;BME280_pressure;Samples;Min_cycle;Max_cycle;Signal;HPM_P1;HPM_P2
2022/11/21 00:01:55;;;;;;;;;;;22.90;64.80;;;;;;1546321;75;669;-68
2022/11/21 00:03:57;;;;;;;;;;;22.90;64.70;;;;;;1564594;75;1153;-69
2022/11/21 00:05:58;;;;;;;;;;;22.90;64.60;;;;;;1566158;75;664;-69
2022/11/21 00:08:00;;;;;;;;;;;22.90;64.50;;;;;;1568119;75;726;-69
2022/11/21 00:10:02;;;;;;;;;;;22.90;64.60;;;;;;1554499;75;678;-70
2022/11/21 00:12:04;;;;;;;;;;;22.80;64.50;;;;;;1562714;75;637;-70
2022/11/21 00:14:06;;;;;;;;;;;22.90;64.70;;;;;;1572300;74;1118;-69
2022/11/21 00:16:09;;;;;;;;;;;22.70;64.70;;;;;;1565783;75;1972;-70
2022/11/21 00:18:11;;;;;;;;;;;22.80;64.80;;;;;;1564093;75;790;-70
2022/11/21 00:20:13;;;;;;;;;;;22.90;64.80;;;;;;1564303;75;584;-70
2022/11/21 00:22:15;;;;;;;;;;;22.80;64.80;;;;;;1568330;75;666;-70
2022/11/21 00:24:17;;;;;;;;;;;22.80;64.90;;;;;;1552441;75;1114;-69
2022/11/21 00:26:19;;;;;;;;;;;22.80;64.90;;;;;;1562839;75;662;-68
2022/11/21 00:28:21;;;;;;;;;;;22.90;64.90;;;;;;1556108;75;687;-69
2022/11/21 00:30:22;;;;;;;;;;;22.90;64.80;;;;;;1567288;75;668;-68
2022/11/21 00:32:24;;;;;;;;;;;22.90;64.80;;;;;;1565243;75;703;-68
2022/11/21 00:34:26;;;;;;;;;;;22.90;64.70;;;;;;1562944;75;1933;-68
2022/11/21 00:36:28;;;;;;;;;;;22.90;64.70;;;;;;1565695;75;711;-68
2022/11/21 00:38:30;;;;;;;;;;;22.90;64.50;;;;;;1558054;75;653;-68
2022/11/21 00:40:32;;;;;;;;;;;22.90;64.50;;;;;;1554183;75;584;-69
2022/11/21 00:42:34;;;;;;;;;;;23.00;64.40;;;;;;1551711;75;660;-68
2022/11/21 00:44:36;;;;;;;;;;;23.00;64.40;;;;;;1553894;75;1140;-68
2022/11/21 00:46:37;;;;;;;;;;;22.90;64.40;;;;;;1553681;75;616;-68
2022/11/21 00:48:39;;;;;;;;;;;22.90;64.40;;;;;;1556999;75;682;-69
2022/11/21 00:50:41;;;;;;;;;;;22.90;64.30;;;;;;1557380;75;654;-69
2022/11/21 00:52:43;;;;;;;;;;;23.00;64.20;;;;;;1564705;75;640;-69
2022/11/21 00:54:45;;;;;;;;;;;23.00;64.20;;;;;;1569601;75;1932;-70
2022/11/21 00:56:47;;;;;;;;;;;22.90;64.20;;;;;;1563560;75;675;-69
2022/11/21 00:58:49;;;;;;;;;;;22.90;64.30;;;;;;1561435;75;635;-69
2022/11/21 01:00:51;;;;;;;;;;;23.00;64.30;;;;;;1564808;75;689;-69
2022/11/21 01:02:53;;;;;;;;;;;22.90;64.10;;;;;;1564207;75;673;-68
2022/11/21 01:04:54;;;;;;;;;;;23.00;64.00;;;;;;1551932;75;1151;-69
2022/11/21 01:06:56;;;;;;;;;;;22.90;64.00;;;;;;1564604;75;669;-69
2022/11/21 01:08:58;;;;;;;;;;;22.90;63.90;;;;;;1557220;75;685;-68
2022/11/21 01:11:07;;;;;;;;;;;23.00;63.90;;;;;;1565732;75;656;-68
2022/11/21 01:13:08;;;;;;;;;;;22.90;63.90;;;;;;1556210;75;550;-67
2022/11/21 01:15:11;;;;;;;;;;;22.90;63.80;;;;;;1592638;71;230398;-71
2022/11/21 01:17:13;;;;;;;;;;;22.90;63.80;;;;;;1594347;73;703;-70
2022/11/21 01:19:15;;;;;;;;;;;22.90;63.80;;;;;;1599850;73;756;-69
2022/11/21 01:21:18;;;;;;;;;;;22.90;63.90;;;;;;1606290;73;699;-70
2022/11/21 01:23:19;;;;;;;;;;;22.90;64.00;;;;;;1600958;73;702;-70
2022/11/21 01:25:21;;;;;;;;;;;22.90;64.00;;;;;;1592672;73;1188;-70
2022/11/21 01:27:23;;;;;;;;;;;22.90;63.90;;;;;;1593872;74;704;-69
2022/11/21 01:29:25;;;;;;;;;;;22.90;64.00;;;;;;1593047;73;726;-69
2022/11/21 01:31:28;;;;;;;;;;;22.90;64.10;;;;;;1592303;74;651;-71
2022/11/21 01:33:30;;;;;;;;;;;22.90;64.20;;;;;;1593258;74;708;-70
2022/11/21 01:35:32;;;;;;;;;;;22.90;64.30;;;;;;1593266;74;1965;-70
2022/11/21 01:37:33;;;;;;;;;;;22.90;64.30;;;;;;1576942;73;1168;-69
2022/11/21 01:39:35;;;;;;;;;;;22.90;64.30;;;;;;1584965;74;660;-70
2022/11/21 01:41:44;;;;;;;;;;;22.90;64.40;;;;;;1577654;74;681;-71
2022/11/21 01:43:49;;;;;;;;;;;22.80;64.40;;;;;;1585436;74;815;-69
2022/11/21 01:45:55;;;;;;;;;;;22.90;64.40;;;;;;1588482;74;1089;-69
2022/11/21 01:47:56;;;;;;;;;;;22.90;64.30;;;;;;1582560;74;1437;-69
2022/11/21 01:49:58;;;;;;;;;;;22.90;64.30;;;;;;1590229;74;756;-69
2022/11/21 01:52:06;;;;;;;;;;;22.80;64.20;;;;;;1593692;74;741;-70
2022/11/21 01:54:24;;;;;;;;;;;22.80;64.30;;;;;;1583215;73;1196;-69
2022/11/21 01:56:26;;;;;;;;;;;22.80;64.50;;;;;;1591310;74;1902;-68
2022/11/21 01:58:28;;;;;;;;;;;22.70;64.70;;;;;;1593836;74;710;-69
2022/11/21 02:00:33;;;;;;;;;;;22.70;64.80;;;;;;1590805;74;728;-68
2022/11/21 02:02:36;;;;;;;;;;;22.60;64.90;;;;;;1588468;74;1683;-69
2022/11/21 02:04:38;;;;;;;;;;;22.60;64.90;;;;;;1589033;74;1105;-69
2022/11/21 02:06:40;;;;;;;;;;;22.60;64.80;;;;;;1593325;74;728;-69
2022/11/21 02:08:42;;;;;;;;;;;22.60;64.90;;;;;;1589193;73;697;-67
2022/11/21 02:10:45;;;;;;;;;;;22.60;64.90;;;;;;1591275;74;653;-69
2022/11/21 02:12:48;;;;;;;;;;;22.60;64.90;;;;;;1587290;74;2183;-67
2022/11/21 02:14:50;;;;;;;;;;;22.60;64.80;;;;;;1586146;74;1130;-68
2022/11/21 02:16:52;;;;;;;;;;;22.70;64.90;;;;;;1602993;72;1928;-68
2022/11/21 02:18:54;;;;;;;;;;;22.60;65.10;;;;;;1603766;72;757;-68
2022/11/21 02:20:57;;;;;;;;;;;22.60;65.00;;;;;;1601015;72;747;-70
2022/11/21 02:23:10;;;;;;;;;;;22.70;64.90;;;;;;1606252;73;1938;-69
2022/11/21 02:25:13;;;;;;;;;;;22.70;64.90;;;;;;1602189;73;1397;-68
2022/11/21 02:27:15;;;;;;;;;;;22.70;64.80;;;;;;1603750;73;730;-68
2022/11/21 02:29:17;;;;;;;;;;;22.80;64.70;;;;;;1597191;72;729;-69
2022/11/21 02:31:19;;;;;;;;;;;22.80;64.60;;;;;;1592198;72;758;-70
2022/11/21 02:33:21;;;;;;;;;;;22.80;64.60;;;;;;1601561;73;784;-69
2022/11/21 02:35:23;;;;;;;;;;;22.80;64.50;;;;;;1586074;72;1961;-69
2022/11/21 02:37:25;;;;;;;;;;;22.90;64.50;;;;;;1595819;72;705;-70
2022/11/21 02:39:28;;;;;;;;;;;22.90;64.50;;;;;;1596060;73;688;-70
2022/11/21 02:41:30;;;;;;;;;;;22.90;64.50;;;;;;1591513;73;693;-70
2022/11/21 02:43:33;;;;;;;;;;;22.80;64.50;;;;;;1592600;72;696;-71
2022/11/21 02:45:36;;;;;;;;;;;22.80;64.40;;;;;;1597787;71;1181;-70
2022/11/21 02:47:38;;;;;;;;;;;22.90;64.40;;;;;;1594837;73;970;-70
2022/11/21 02:49:47;;;;;;;;;;;22.90;64.40;;;;;;1589750;73;729;-70
2022/11/21 02:51:49;;;;;;;;;;;22.80;64.30;;;;;;1586331;72;1910;-70
2022/11/21 02:53:54;;;;;;;;;;;22.80;64.20;;;;;;1597172;72;659;-70
2022/11/21 02:55:56;;;;;;;;;;;22.90;64.30;;;;;;1602233;73;1916;-70
2022/11/21 02:57:58;;;;;;;;;;;22.90;64.10;;;;;;1607365;72;685;-70
2022/11/21 03:00:00;;;;;;;;;;;22.90;64.10;;;;;;1593674;73;762;-70
2022/11/21 03:02:02;;;;;;;;;;;23.00;64.10;;;;;;1597960;72;702;-70
2022/11/21 03:04:04;;;;;;;;;;;22.90;64.10;;;;;;1595955;73;1128;-73
2022/11/21 03:06:06;;;;;;;;;;;23.00;64.10;;;;;;1586205;73;719;-71
2022/11/21 03:08:07;;;;;;;;;;;22.90;64.20;;;;;;1586631;73;713;-70
2022/11/21 03:10:09;;;;;;;;;;;22.80;64.10;;;;;;1585248;73;694;-72
2022/11/21 03:12:11;;;;;;;;;;;22.80;64.10;;;;;;1589846;73;713;-70
2022/11/21 03:14:13;;;;;;;;;;;22.90;64.10;;;;;;1608387;71;1127;-71
2022/11/21 03:16:15;;;;;;;;;;;22.90;64.10;;;;;;1607456;72;1954;-70
2022/11/21 03:18:17;;;;;;;;;;;22.90;64.10;;;;;;1607920;72;650;-69
2022/11/21 03:20:19;;;;;;;;;;;22.80;64.10;;;;;;1616739;72;655;-70
2022/11/21 03:22:20;;;;;;;;;;;22.90;64.20;;;;;;1594143;72;655;-70
2022/11/21 03:24:22;;;;;;;;;;;22.80;64.20;;;;;;1601272;72;1123;-72
2022/11/21 03:26:24;;;;;;;;;;;22.80;64.20;;;;;;1604384;73;681;-70
2022/11/21 03:28:26;;;;;;;;;;;22.90;64.40;;;;;;1603532;73;899;-70
2022/11/21 03:30:28;;;;;;;;;;;22.80;64.30;;;;;;1607691;72;1141;-70
2022/11/21 03:32:30;;;;;;;;;;;22.70;64.40;;;;;;1617034;72;675;-70
2022/11/21 03:34:32;;;;;;;;;;;22.80;64.50;;;;;;1596804;72;1139;-67
2022/11/21 03:36:34;;;;;;;;;;;22.70;64.40;;;;;;1608394;73;1949;-69
2022/11/21 03:38:35;;;;;;;;;;;22.70;64.50;;;;;;1600734;72;666;-70
2022/11/21 03:40:37;;;;;;;;;;;22.70;64.60;;;;;;1611137;72;667;-69
2022/11/21 03:42:39;;;;;;;;;;;22.80;64.60;;;;;;1599003;72;794;-69
2022/11/21 03:44:41;;;;;;;;;;;22.70;64.50;;;;;;1604577;72;1106;-69
2022/11/21 03:46:43;;;;;;;;;;;22.80;64.70;;;;;;1622948;73;817;-70
2022/11/21 03:48:45;;;;;;;;;;;22.70;64.60;;;;;;1604624;73;695;-69
2022/11/21 03:50:47;;;;;;;;;;;22.70;64.60;;;;;;1609375;72;809;-69
2022/11/21 03:52:49;;;;;;;;;;;22.70;64.60;;;;;;1599634;73;692;-70
2022/11/21 03:54:51;;;;;;;;;;;22.70;64.70;;;;;;1603659;73;1130;-70
2022/11/21 03:56:53;;;;;;;;;;;22.80;64.50;;;;;;1603375;72;1936;-70
2022/11/21 03:58:55;;;;;;;;;;;22.80;64.30;;;;;;1604025;72;787;-69
2022/11/21 04:00:56;;;;;;;;;;;22.80;64.20;;;;;;1610009;72;657;-70
2022/11/21 04:02:58;;;;;;;;;;;22.90;64.20;;;;;;1605893;73;671;-70
2022/11/21 04:05:00;;;;;;;;;;;22.90;64.00;;;;;;1605863;72;1106;-69
2022/11/21 04:07:02;;;;;;;;;;;22.90;63.80;;;;;;1597480;72;682;-70
2022/11/21 04:09:04;;;;;;;;;;;23.00;63.70;;;;;;1589729;73;691;-70
2022/11/21 04:11:06;;;;;;;;;;;23.00;63.70;;;;;;1604647;73;692;-72
2022/11/21 04:13:08;;;;;;;;;;;23.00;63.70;;;;;;1591184;72;777;-70
2022/11/21 04:15:10;;;;;;;;;;;22.90;63.70;;;;;;1607731;72;1110;-69
2022/11/21 04:17:12;;;;;;;;;;;23.00;63.60;;;;;;1612665;73;1926;-70
2022/11/21 04:19:13;;;;;;;;;;;23.00;63.60;;;;;;1600475;72;759;-70
2022/11/21 04:21:15;;;;;;;;;;;23.00;63.60;;;;;;1605496;72;575;-69
2022/11/21 04:23:17;;;;;;;;;;;23.00;63.60;;;;;;1599535;73;668;-68
2022/11/21 04:25:19;;;;;;;;;;;22.90;63.70;;;;;;1592234;72;1193;-70
2022/11/21 04:27:21;;;;;;;;;;;22.90;63.70;;;;;;1590323;73;695;-70
2022/11/21 04:29:23;;;;;;;;;;;22.90;63.70;;;;;;1581572;72;705;-70
2022/11/21 04:31:25;;;;;;;;;;;22.90;63.70;;;;;;1588165;73;706;-70
2022/11/21 04:33:26;;;;;;;;;;;22.90;63.70;;;;;;1594518;73;695;-69
2022/11/21 04:35:28;;;;;;;;;;;22.90;63.80;;;;;;1603410;72;1188;-69
2022/11/21 04:37:30;;;;;;;;;;;22.90;63.70;;;;;;1593367;73;1934;-70
2022/11/21 04:39:32;;;;;;;;;;;22.90;63.70;;;;;;1605931;73;720;-69
2022/11/21 04:41:34;;;;;;;;;;;22.90;63.70;;;;;;1602849;73;690;-69
2022/11/21 04:43:36;;;;;;;;;;;22.90;63.70;;;;;;1598938;73;705;-69
2022/11/21 04:45:38;;;;;;;;;;;22.90;63.80;;;;;;1612701;72;1092;-69
2022/11/21 04:47:40;;;;;;;;;;;22.80;63.70;;;;;;1609863;72;698;-66
2022/11/21 04:49:42;;;;;;;;;;;22.80;63.80;;;;;;1599442;73;975;-69
2022/11/21 04:51:44;;;;;;;;;;;22.80;63.90;;;;;;1609632;72;651;-68
2022/11/21 04:53:46;;;;;;;;;;;22.80;64.10;;;;;;1610145;73;904;-69
2022/11/21 04:55:48;;;;;;;;;;;22.60;64.20;;;;;;1617189;72;1161;-71
2022/11/21 04:57:49;;;;;;;;;;;22.70;64.30;;;;;;1588953;73;1946;-73
2022/11/21 04:59:51;;;;;;;;;;;22.70;64.60;;;;;;1617723;72;659;-70
2022/11/21 05:01:53;;;;;;;;;;;22.70;64.70;;;;;;1594473;72;715;-68
2022/11/21 05:03:55;;;;;;;;;;;22.70;64.80;;;;;;1614399;72;1141;-70
2022/11/21 05:05:57;;;;;;;;;;;22.60;64.80;;;;;;1600345;72;762;-69
2022/11/21 05:07:59;;;;;;;;;;;22.60;64.90;;;;;;1595066;72;787;-71
2022/11/21 05:10:01;;;;;;;;;;;22.60;64.90;;;;;;1598670;73;773;-70
2022/11/21 05:14:27;;;;;;;;;;;22.60;64.90;;;;;;1613081;72;1641;-69
2022/11/21 05:16:26;;;;;;;;;;;22.50;64.90;;;;;;1607412;72;1901;-69
2022/11/21 05:18:28;;;;;;;;;;;22.60;65.00;;;;;;1608801;73;537;-68
2022/11/21 05:20:30;;;;;;;;;;;22.50;65.10;;;;;;1600414;72;717;-66
2022/11/21 05:22:32;;;;;;;;;;;22.60;65.10;;;;;;1597294;72;1281;-70
2022/11/21 05:24:34;;;;;;;;;;;22.60;64.90;;;;;;1603877;72;1146;-69
2022/11/21 05:26:36;;;;;;;;;;;22.70;64.90;;;;;;1589471;72;659;-70
2022/11/21 05:28:38;;;;;;;;;;;22.70;64.80;;;;;;1592389;73;811;-69
2022/11/21 05:30:40;;;;;;;;;;;22.80;64.70;;;;;;1609588;73;695;-69
2022/11/21 05:32:43;;;;;;;;;;;22.80;64.50;;;;;;1602715;73;742;-68
2022/11/21 05:34:44;;;;;;;;;;;22.80;64.30;;;;;;1598863;73;1148;-68
2022/11/21 05:36:46;;;;;;;;;;;22.70;64.50;;;;;;1605772;72;1934;-68
2022/11/21 05:38:48;;;;;;;;;;;22.90;64.40;;;;;;1589946;73;723;-69
2022/11/21 05:40:52;;;;;;;;;;;22.90;64.20;;;;;;1603943;72;726;-68
2022/11/21 05:45:14;;;;;;;;;;;22.90;64.00;;;;;;1603548;72;1668;-70
2022/11/21 05:47:15;;;;;;;;;;;22.90;63.90;;;;;;1591846;72;706;-70
2022/11/21 05:49:17;;;;;;;;;;;23.00;63.90;;;;;;1603953;72;750;-68
2022/11/21 05:51:19;;;;;;;;;;;22.80;64.20;;;;;;1594043;72;733;-68
2022/11/21 05:53:21;;;;;;;;;;;22.70;64.60;;;;;;1602011;73;808;-66
2022/11/21 05:55:23;;;;;;;;;;;22.60;64.60;;;;;;1603812;72;1096;-67
2022/11/21 05:57:25;;;;;;;;;;;22.50;64.60;;;;;;1600678;72;1934;-67
2022/11/21 05:59:27;;;;;;;;;;;22.50;64.60;;;;;;1604365;72;680;-69
2022/11/21 06:03:48;;;;;;;;;;;22.40;64.00;;;;;;1606338;72;1674;-68
2022/11/21 06:05:50;;;;;;;;;;;22.40;65.30;;;;;;1601966;73;1151;-69
2022/11/21 06:07:52;;;;;;;;;;;22.30;64.80;;;;;;1606100;72;791;-65
2022/11/21 06:09:54;;;;;;;;;;;22.30;65.20;;;;;;1610685;73;777;-67
2022/11/21 06:11:56;;;;;;;;;;;22.30;65.20;;;;;;1608421;73;724;-67
2022/11/21 06:13:58;;;;;;;;;;;22.20;65.20;;;;;;1617564;72;1131;-67
2022/11/21 06:16:04;;;;;;;;;;;22.20;65.40;;;;;;1605766;73;785;-67
2022/11/21 06:18:06;;;;;;;;;;;22.20;65.70;;;;;;1607760;72;1918;-67
2022/11/21 06:20:09;;;;;;;;;;;22.30;65.30;;;;;;1613461;72;659;-68
2022/11/21 06:22:11;;;;;;;;;;;22.40;64.90;;;;;;1602296;72;645;-67
2022/11/21 06:24:13;;;;;;;;;;;22.50;64.90;;;;;;1599324;72;1138;-68
2022/11/21 06:26:15;;;;;;;;;;;22.50;64.70;;;;;;1606164;72;680;-69
2022/11/21 06:28:17;;;;;;;;;;;22.50;64.70;;;;;;1602928;73;792;-67
2022/11/21 06:30:19;;;;;;;;;;;22.30;64.70;;;;;;1610459;72;691;-70
2022/11/21 06:32:21;;;;;;;;;;;22.30;65.00;;;;;;1604704;73;688;-66
2022/11/21 06:34:24;;;;;;;;;;;22.40;65.10;;;;;;1599772;72;1147;-65
2022/11/21 06:36:26;;;;;;;;;;;22.50;65.20;;;;;;1601268;72;738;-67
2022/11/21 06:38:28;;;;;;;;;;;22.40;64.80;;;;;;1599912;72;1952;-67
2022/11/21 06:40:30;;;;;;;;;;;22.60;64.70;;;;;;1600599;73;756;-67
2022/11/21 06:42:32;;;;;;;;;;;22.60;64.30;;;;;;1612574;73;694;-67
2022/11/21 06:44:34;;;;;;;;;;;22.80;64.00;;;;;;1598755;72;1171;-67
2022/11/21 06:46:36;;;;;;;;;;;22.90;63.70;;;;;;1609575;73;669;-67
2022/11/21 06:48:38;;;;;;;;;;;22.90;63.30;;;;;;1605080;72;840;-72
2022/11/21 06:50:40;;;;;;;;;;;22.90;63.20;;;;;;1603153;73;810;-63
2022/11/21 06:52:42;;;;;;;;;;;22.80;62.90;;;;;;1596542;72;819;-65
2022/11/21 06:54:44;;;;;;;;;;;22.70;63.00;;;;;;1602648;73;1118;-67
2022/11/21 06:56:45;;;;;;;;;;;22.70;63.00;;;;;;1579866;72;657;-66
2022/11/21 06:58:47;;;;;;;;;;;22.60;63.00;;;;;;1604072;73;646;-67
2022/11/21 07:00:49;;;;;;;;;;;22.60;63.00;;;;;;1592994;73;681;-67
2022/11/21 07:02:51;;;;;;;;;;;22.60;63.00;;;;;;1589846;73;708;-67
2022/11/21 07:04:53;;;;;;;;;;;22.60;62.90;;;;;;1609583;72;1109;-65
2022/11/21 07:06:55;;;;;;;;;;;22.50;62.80;;;;;;1591826;73;758;-66
2022/11/21 07:08:57;;;;;;;;;;;22.60;62.90;;;;;;1601651;72;650;-66
2022/11/21 07:11:02;;;;;;;;;;;22.50;62.80;;;;;;1603945;72;758;-66
2022/11/21 07:13:22;;;;;;;;;;;22.40;62.70;;;;;;1605513;72;701;-67
2022/11/21 07:15:24;;;;;;;;;;;22.50;62.90;;;;;;1577346;72;231882;-59
2022/11/21 07:17:26;;;;;;;;;;;22.50;63.00;;;;;;1528018;76;1947;-59
2022/11/21 07:19:28;;;;;;;;;;;22.40;62.80;;;;;;1518986;77;1222;-59
2022/11/21 07:21:30;;;;;;;;;;;22.40;62.80;;;;;;1542294;76;676;-59
2022/11/21 07:23:31;;;;;;;;;;;22.40;62.80;;;;;;1543428;76;721;-59
2022/11/21 07:25:33;;;;;;;;;;;22.40;62.90;;;;;;1539718;75;600;-59
2022/11/21 07:27:35;;;;;;;;;;;22.40;62.90;;;;;;1544338;75;1133;-63
2022/11/21 07:29:37;;;;;;;;;;;22.40;62.80;;;;;;1506221;78;685;-59
2022/11/21 07:31:39;;;;;;;;;;;22.30;62.70;;;;;;1516843;77;674;-58
2022/11/21 07:33:46;;;;;;;;;;;22.30;62.50;;;;;;1551485;76;706;-60
2022/11/21 07:35:45;;;;;;;;;;;22.30;61.90;;;;;;1530432;76;1893;-59
2022/11/21 07:37:47;;;;;;;;;;;22.30;61.70;;;;;;1526931;76;1946;-59
2022/11/21 07:39:49;;;;;;;;;;;22.30;61.80;;;;;;1525293;76;680;-58
2022/11/21 07:41:50;;;;;;;;;;;22.40;61.60;;;;;;1532118;76;755;-57
2022/11/21 07:43:52;;;;;;;;;;;22.40;61.50;;;;;;1550233;76;737;-58
2022/11/21 07:45:55;;;;;;;;;;;22.40;61.70;;;;;;1554856;76;695;-57
2022/11/21 07:48:00;;;;;;;;;;;22.50;61.70;;;;;;1555529;75;1183;-64
2022/11/21 07:50:02;;;;;;;;;;;22.50;61.50;;;;;;1557933;75;669;-62
2022/11/21 07:52:04;;;;;;;;;;;22.60;61.60;;;;;;1543636;76;707;-62
2022/11/21 07:54:06;;;;;;;;;;;22.50;61.60;;;;;;1538560;76;656;-64
2022/11/21 07:56:08;;;;;;;;;;;22.40;61.60;;;;;;1552143;75;687;-58
2022/11/21 07:58:11;;;;;;;;;;;22.40;61.60;;;;;;1555108;75;1911;-58
2022/11/21 08:00:13;;;;;;;;;;;22.40;61.70;;;;;;1539243;75;525;-59
2022/11/21 08:02:19;;;;;;;;;;;22.40;61.70;;;;;;1526575;77;636;-57
2022/11/21 08:04:21;;;;;;;;;;;22.40;61.70;;;;;;1512551;78;617;-59
2022/11/21 08:06:23;;;;;;;;;;;22.40;61.70;;;;;;1558079;75;651;-59
2022/11/21 08:08:25;;;;;;;;;;;22.40;61.70;;;;;;1517388;77;1120;-60
2022/11/21 08:10:27;;;;;;;;;;;22.40;61.70;;;;;;1544391;75;1486;-58
2022/11/21 08:12:28;;;;;;;;;;;22.40;61.80;;;;;;1546354;77;649;-60
2022/11/21 08:14:30;;;;;;;;;;;22.30;61.90;;;;;;1546121;77;752;-58
2022/11/21 08:16:32;;;;;;;;;;;22.30;61.90;;;;;;1558726;75;789;-58
2022/11/21 08:18:34;;;;;;;;;;;22.20;61.90;;;;;;1564925;75;1947;-57
2022/11/21 08:20:36;;;;;;;;;;;22.30;62.10;;;;;;1560717;75;659;-58
2022/11/21 08:22:39;;;;;;;;;;;22.20;62.10;;;;;;1566924;74;651;-62
2022/11/21 08:24:41;;;;;;;;;;;22.20;62.30;;;;;;1554765;74;1311;-64
2022/11/21 08:26:43;;;;;;;;;;;22.10;62.30;;;;;;1563503;75;650;-62
2022/11/21 08:28:45;;;;;;;;;;;22.10;62.40;;;;;;1569600;75;1102;-61
2022/11/21 08:30:47;;;;;;;;;;;22.10;62.40;;;;;;1566685;74;693;-66
2022/11/21 08:32:49;;;;;;;;;;;22.10;62.40;;;;;;1556371;75;733;-62
2022/11/21 08:34:51;;;;;;;;;;;22.10;62.50;;;;;;1572696;75;595;-62
2022/11/21 08:36:53;;;;;;;;;;;22.10;62.50;;;;;;1563500;75;645;-63
2022/11/21 08:38:55;;;;;;;;;;;22.10;62.40;;;;;;1548436;75;1953;-62
2022/11/21 08:43:17;;;;;;;;;;;22.10;62.50;;;;;;1557556;75;1689;-62
2022/11/21 08:45:18;;;;;;;;;;;22.00;62.50;;;;;;1540920;76;641;-62
2022/11/21 08:47:20;;;;;;;;;;;22.00;62.50;;;;;;1522461;78;707;-62
2022/11/21 08:49:22;;;;;;;;;;;22.00;62.60;;;;;;1518297;76;1129;-63
2022/11/21 08:51:24;;;;;;;;;;;22.00;62.60;;;;;;1538843;76;679;-62
2022/11/21 08:53:26;;;;;;;;;;;22.00;62.60;;;;;;1539337;75;1470;-63
2022/11/21 08:55:28;;;;;;;;;;;22.00;62.60;;;;;;1514514;78;682;-69
2022/11/21 08:57:30;;;;;;;;;;;22.10;62.70;;;;;;1513145;78;1155;-60
2022/11/21 08:59:32;;;;;;;;;;;22.00;62.60;;;;;;1553053;75;667;-60
2022/11/21 09:01:34;;;;;;;;;;;22.10;62.60;;;;;;1527137;76;690;-63
2022/11/21 09:03:36;;;;;;;;;;;22.10;62.70;;;;;;1537615;76;661;-63
2022/11/21 09:05:37;;;;;;;;;;;22.20;62.60;;;;;;1521716;77;690;-63
2022/11/21 09:07:40;;;;;;;;;;;22.20;62.50;;;;;;1548314;75;1431;-62
2022/11/21 09:09:42;;;;;;;;;;;22.40;62.50;;;;;;1509552;77;677;-63
2022/11/21 09:11:43;;;;;;;;;;;22.40;62.40;;;;;;1567323;74;566;-62
2022/11/21 09:18:01;;;;;;;;;;;22.50;62.20;;;;;;1568053;75;689;-64
2022/11/21 09:18:12;;;;;;;;;;;22.70;61.80;;;;;;1557303;75;1928;-65
2022/11/21 09:20:14;;;;;;;;;;;22.70;61.60;;;;;;1550898;75;737;-67
2022/11/21 09:22:16;;;;;;;;;;;22.80;61.40;;;;;;1546008;76;1601;-65
2022/11/21 09:24:18;;;;;;;;;;;22.80;61.30;;;;;;1561004;74;655;-64
2022/11/21 09:26:20;;;;;;;;;;;22.80;61.20;;;;;;1565298;74;673;-63
2022/11/21 09:28:22;;;;;;;;;;;22.90;61.30;;;;;;1564864;74;1117;-63
2022/11/21 09:30:23;;;;;;;;;;;22.90;61.20;;;;;;1562013;75;624;-62
2022/11/21 09:32:25;;;;;;;;;;;22.90;61.20;;;;;;1568888;74;696;-59
2022/11/21 09:34:27;;;;;;;;;;;22.90;61.10;;;;;;1567028;74;671;-59
2022/11/21 09:36:29;;;;;;;;;;;22.90;61.00;;;;;;1561988;74;1396;-58
2022/11/21 09:38:31;;;;;;;;;;;22.90;61.00;;;;;;1550631;75;1945;-58
2022/11/21 09:40:33;;;;;;;;;;;22.90;61.00;;;;;;1552311;75;685;-60
2022/11/21 09:42:53;;;;;;;;;;;22.90;61.00;;;;;;1564974;74;675;-64
2022/11/21 09:44:58;;;;;;;;;;;22.90;61.10;;;;;;1546791;74;679;-63
2022/11/21 09:47:02;;;;;;;;;;;22.90;61.10;;;;;;1563148;74;658;-63
2022/11/21 09:49:04;;;;;;;;;;;22.90;60.90;;;;;;1539529;75;1525;-67
2022/11/21 09:51:07;;;;;;;;;;;22.90;60.90;;;;;;1537669;75;689;-67
2022/11/21 09:53:16;;;;;;;;;;;22.90;60.90;;;;;;1546601;76;660;-63
2022/11/21 09:55:36;;;;;;;;;;;22.90;60.70;;;;;;1543342;76;687;-63
2022/11/21 09:57:38;;;;;;;;;;;22.90;60.70;;;;;;1539073;76;1190;-64
2022/11/21 09:59:40;;;;;;;;;;;23.00;60.50;;;;;;1541835;75;1925;-63
2022/11/21 10:01:42;;;;;;;;;;;23.00;60.40;;;;;;1541653;76;629;-63
2022/11/21 10:03:45;;;;;;;;;;;23.00;60.30;;;;;;1555440;76;1444;-64
2022/11/21 10:05:48;;;;;;;;;;;23.00;60.20;;;;;;1553542;76;589;-63
2022/11/21 10:07:50;;;;;;;;;;;23.10;60.00;;;;;;1557981;74;1142;-64
2022/11/21 10:10:03;;;;;;;;;;;23.10;59.90;;;;;;1538735;75;741;-65
2022/11/21 10:14:46;;;;;;;;;;;23.10;59.70;;;;;;1550315;76;1710;-67
2022/11/21 10:17:02;;;;;;;;;;;23.10;59.70;;;;;;1553054;76;1758;-65
2022/11/21 10:19:08;;;;;;;;;;;23.20;59.60;;;;;;1504067;76;1973;-63
2022/11/21 10:21:24;;;;;;;;;;;23.10;59.60;;;;;;1543811;75;575;-63
2022/11/21 10:23:33;;;;;;;;;;;23.20;59.60;;;;;;1549321;75;711;-64
2022/11/21 10:25:38;;;;;;;;;;;23.20;59.60;;;;;;1562402;74;1665;-65
2022/11/21 10:27:42;;;;;;;;;;;23.10;59.50;;;;;;1562609;74;1152;-66
2022/11/21 10:29:45;;;;;;;;;;;23.10;59.50;;;;;;1550664;76;686;-65
2022/11/21 10:31:47;;;;;;;;;;;23.10;59.50;;;;;;1536300;75;1422;-63
2022/11/21 10:33:49;;;;;;;;;;;23.10;59.50;;;;;;1561411;74;634;-63
2022/11/21 10:35:53;;;;;;;;;;;23.20;59.40;;;;;;1567642;74;661;-63
2022/11/21 10:38:01;;;;;;;;;;;23.20;59.30;;;;;;1538402;75;1115;-63
2022/11/21 10:40:20;;;;;;;;;;;23.20;59.40;;;;;;1564587;75;1896;-65
2022/11/21 10:42:39;;;;;;;;;;;23.10;59.30;;;;;;1580463;74;973;-63
2022/11/21 10:47:00;;;;;;;;;;;23.10;59.60;;;;;;1564883;74;1632;-61
2022/11/21 10:49:03;;;;;;;;;;;23.00;59.70;;;;;;1554756;74;1182;-63
2022/11/21 10:51:06;;;;;;;;;;;23.00;59.80;;;;;;1566453;74;702;-66
2022/11/21 10:55:30;;;;;;;;;;;23.10;59.90;;;;;;1561910;74;781;-63
2022/11/21 10:57:33;;;;;;;;;;;23.00;59.70;;;;;;1566029;74;1148;-60
2022/11/21 10:59:34;;;;;;;;;;;23.00;59.70;;;;;;1560104;74;1940;-59
2022/11/21 11:01:37;;;;;;;;;;;23.00;59.70;;;;;;1522176;75;684;-59
2022/11/21 11:03:38;;;;;;;;;;;23.10;59.70;;;;;;1563220;76;676;-59
2022/11/21 11:05:42;;;;;;;;;;;23.10;59.60;;;;;;1553174;76;653;-60
2022/11/21 11:07:46;;;;;;;;;;;23.10;59.50;;;;;;1555091;74;1099;-59
2022/11/21 11:09:47;;;;;;;;;;;23.20;59.40;;;;;;1544429;75;1187;-59
2022/11/21 11:11:49;;;;;;;;;;;23.10;59.50;;;;;;1542253;75;696;-60
2022/11/21 11:13:58;;;;;;;;;;;23.10;59.40;;;;;;1526979;75;1462;-60
2022/11/21 11:16:18;;;;;;;;;;;23.10;59.40;;;;;;1529641;75;643;-60
2022/11/21 11:18:18;;;;;;;;;;;23.10;59.30;;;;;;1542606;75;1944;-59
2022/11/21 11:20:30;;;;;;;;;;;23.20;59.30;;;;;;1567936;74;725;-65
2022/11/21 11:22:32;;;;;;;;;;;23.20;59.30;;;;;;1569504;74;691;-67
2022/11/21 11:24:34;;;;;;;;;;;23.10;59.30;;;;;;1534833;75;671;-63
2022/11/21 11:26:49;;;;;;;;;;;23.20;59.40;;;;;;1543851;76;668;-64
2022/11/21 11:28:51;;;;;;;;;;;23.10;59.30;;;;;;1549989;75;1507;-64
2022/11/21 11:30:53;;;;;;;;;;;23.10;59.30;;;;;;1550439;75;701;-66
2022/11/21 11:32:55;;;;;;;;;;;23.10;59.40;;;;;;1543105;76;636;-63
2022/11/21 11:35:00;;;;;;;;;;;23.10;59.40;;;;;;1540973;76;669;-63
2022/11/21 11:37:03;;;;;;;;;;;23.10;59.50;;;;;;1532869;76;719;-64
2022/11/21 11:39:19;;;;;;;;;;;23.10;59.50;;;;;;1551963;74;1984;-63
2022/11/21 11:47:29;;;;;;;;;;;23.00;59.40;;;;;;1540252;75;1519;-62
2022/11/21 11:48:35;;;;;;;;;;;23.00;59.60;;;;;;1533987;75;1676;-63
2022/11/21 11:50:49;;;;;;;;;;;23.00;59.60;;;;;;1538869;75;2149;-63
2022/11/21 11:53:02;;;;;;;;;;;23.00;59.60;;;;;;1541381;75;651;-67
2022/11/21 11:55:08;;;;;;;;;;;23.10;59.60;;;;;;1562799;74;745;-63
2022/11/21 11:57:10;;;;;;;;;;;23.00;59.40;;;;;;1568430;74;1365;-65
2022/11/21 11:59:14;;;;;;;;;;;23.00;59.40;;;;;;1569070;74;2268;-65
2022/11/21 12:01:33;;;;;;;;;;;23.10;59.50;;;;;;1573357;74;655;-64
2022/11/21 12:03:39;;;;;;;;;;;23.10;59.40;;;;;;1553010;76;1684;-64
2022/11/21 12:05:43;;;;;;;;;;;23.00;59.40;;;;;;1537797;75;1743;-64
2022/11/21 12:07:47;;;;;;;;;;;23.00;59.30;;;;;;1549957;75;1901;-64
2022/11/21 12:09:56;;;;;;;;;;;23.00;59.30;;;;;;1537263;75;1459;-68
2022/11/21 12:12:08;;;;;;;;;;;23.00;59.30;;;;;;1536497;75;677;-63
2022/11/21 12:16:48;;;;;;;;;;;23.10;59.20;;;;;;1567025;74;1669;-63
2022/11/21 12:18:57;;;;;;;;;;;23.10;59.20;;;;;;1546775;75;1949;-63
2022/11/21 12:21:04;;;;;;;;;;;23.10;59.20;;;;;;1568731;74;1804;-65
2022/11/21 12:23:06;;;;;;;;;;;23.10;59.20;;;;;;1537552;75;733;-64
2022/11/21 12:25:12;;;;;;;;;;;23.10;59.20;;;;;;1552208;76;1458;-64
2022/11/21 12:27:21;;;;;;;;;;;23.00;58.90;;;;;;1562903;75;760;-64
2022/11/21 12:29:25;;;;;;;;;;;23.00;59.20;;;;;;1556745;74;1702;-63
2022/11/21 12:31:28;;;;;;;;;;;22.90;59.30;;;;;;1566408;74;665;-63
2022/11/21 12:33:30;;;;;;;;;;;22.90;59.30;;;;;;1563716;74;1798;-58
2022/11/21 12:35:37;;;;;;;;;;;23.00;59.20;;;;;;1555007;74;676;-60
2022/11/21 12:37:40;;;;;;;;;;;23.00;59.20;;;;;;1569686;74;1822;-61
2022/11/21 12:39:47;;;;;;;;;;;23.00;58.90;;;;;;1524224;75;1938;-59
2022/11/21 12:44:15;;;;;;;;;;;23.00;59.10;;;;;;1553777;75;680;-56